Time;durP1;ratioP1;P1;durP2;ratioP2;P2;SDS_P1;SDS_P2;PMS_P1;PMS_P2;Temp;Humidity;BMP_temperature;BMP_pressure;BME280_temperature;BME280_humidity;BME280_pressure;Samples;Min_cycle;Max_cycle;Signal;HPM_P1;HPM_P2
2022/07/23 00:00:53;;;;;;;20.62;14.90;;;;;;;19.71;62.08;100310.01;2046246;86;33029;-72
2022/07/23 00:03:55;;;;;;;14.73;13.10;;;;;;;19.68;62.16;100310.78;2045738;87;29717;-73
2022/07/23 00:06:57;;;;;;;25.75;13.83;;;;;;;19.63;62.25;100315.24;2027427;87;27685;-70
2022/07/23 00:09:58;;;;;;;13.80;12.50;;;;;;;19.57;62.33;100313.08;2027838;86;29488;-70
2022/07/23 00:12:59;;;;;;;14.70;13.30;;;;;;;19.53;62.58;100317.91;2027210;87;31648;-72
2022/07/23 00:16:00;;;;;;;17.37;13.40;;;;;;;19.47;62.64;100313.02;2081824;85;32934;-71
2022/07/23 00:19:02;;;;;;;14.47;13.03;;;;;;;19.44;62.73;100322.80;2046235;87;30416;-68
2022/07/23 00:22:03;;;;;;;16.67;13.68;;;;;;;19.41;62.96;100312.19;2046327;87;27800;-72
2022/07/23 00:25:05;;;;;;;15.30;13.75;;;;;;;19.36;63.23;100307.16;2046256;86;28616;-71
2022/07/23 00:28:06;;;;;;;15.25;13.10;;;;;;;19.33;63.45;100312.01;2027662;87;31011;-71
2022/07/23 00:31:08;;;;;;;16.35;14.63;;;;;;;19.27;63.51;100308.82;2027207;86;33817;-71
2022/07/23 00:34:09;;;;;;;15.78;14.05;;;;;;;19.23;63.77;100313.30;2027511;87;29657;-71
2022/07/23 00:37:10;;;;;;;15.50;12.03;;;;;;;19.18;63.75;100318.25;2082427;85;27744;-71
2022/07/23 00:40:12;;;;;;;15.40;13.75;;;;;;;19.13;63.87;100315.42;2046235;86;28038;-70
2022/07/23 00:43:13;;;;;;;15.53;13.22;;;;;;;19.10;64.00;100321.15;2045720;87;31258;-69
2022/07/23 00:46:21;;;;;;;16.20;13.55;;;;;;;19.08;64.18;100320.41;2027604;87;33736;-69
2022/07/23 00:49:27;;;;;;;14.47;13.00;;;;;;;19.06;64.38;100326.47;2027020;87;30731;-70
2022/07/23 00:52:28;;;;;;;16.27;13.83;;;;;;;19.05;64.49;100330.66;2027294;86;27752;-71
2022/07/23 00:55:29;;;;;;;19.00;13.55;;;;;;;19.00;64.56;100331.05;2082271;85;29379;-70
2022/07/23 00:58:30;;;;;;;16.65;13.50;;;;;;;18.94;64.71;100329.72;2046175;87;30490;-69
2022/07/23 01:01:32;;;;;;;17.32;15.15;;;;;;;18.91;64.68;100334.52;2046076;87;32943;-71
2022/07/23 01:04:33;;;;;;;18.10;15.18;;;;;;;18.88;64.62;100333.42;2046204;87;30448;-70
2022/07/23 01:07:35;;;;;;;22.37;14.50;;;;;;;18.82;64.65;100330.22;2027762;87;27613;-70
2022/07/23 01:10:38;;;;;;;17.27;15.08;;;;;;;18.77;64.89;100325.70;2027770;86;28629;-69
2022/07/23 01:13:45;;;;;;;18.23;13.85;;;;;;;18.73;65.02;100337.80;2027757;87;31737;-69
2022/07/23 01:16:48;;;;;;;16.15;14.30;;;;;;;18.68;65.27;100338.19;2082190;85;33045;-68
2022/07/23 01:19:49;;;;;;;17.55;14.53;;;;;;;18.66;65.23;100329.31;2046243;86;29633;-69
2022/07/23 01:22:52;;;;;;;21.30;14.58;;;;;;;18.64;65.37;100319.55;2046339;86;27620;-68
2022/07/23 01:25:54;;;;;;;15.03;13.40;;;;;;;18.62;65.45;100321.52;2027711;87;28680;-68
2022/07/23 01:28:56;;;;;;;19.40;13.88;;;;;;;18.60;65.46;100320.31;2027198;87;31255;-67
2022/07/23 01:31:57;;;;;;;18.00;14.65;;;;;;;18.58;65.60;100320.08;2082002;84;32944;-67
2022/07/23 01:34:58;;;;;;;15.88;14.30;;;;;;;18.58;65.84;100328.22;2046066;87;29615;-67
2022/07/23 01:37:59;;;;;;;16.42;14.58;;;;;;;18.53;65.70;100319.11;2027627;87;27532;-67
2022/07/23 01:41:00;;;;;;;19.57;14.75;;;;;;;18.51;65.87;100322.45;2027641;86;28642;-68
2022/07/23 01:44:02;;;;;;;17.40;14.78;;;;;;;18.47;65.88;100326.39;2027578;87;31088;-63
2022/07/23 01:47:03;;;;;;;20.40;15.45;;;;;;;18.45;66.03;100331.08;2058576;85;33009;-63
2022/07/23 01:50:08;;;;;;;16.73;14.95;;;;;;;18.41;66.26;100324.17;2082250;85;29306;-67
2022/07/23 01:53:09;;;;;;;17.92;15.15;;;;;;;18.38;66.40;100326.15;2081869;85;27663;-67
2022/07/23 01:56:10;;;;;;;18.77;15.68;;;;;;;18.35;66.42;100330.97;2084383;84;29735;-67
2022/07/23 01:59:11;;;;;;;16.07;13.98;;;;;;;18.30;66.42;100327.29;2080010;85;32266;-67
2022/07/23 02:02:13;;;;;;;24.65;16.23;;;;;;;18.28;66.45;100330.61;2080275;84;32988;-67
2022/07/23 02:05:14;;;;;;;18.02;15.43;;;;;;;18.25;66.70;100326.80;2049338;85;30723;-69
2022/07/23 02:08:16;;;;;;;17.10;14.15;;;;;;;18.22;66.78;100321.61;2031730;87;28408;-67
2022/07/23 02:11:17;;;;;;;16.05;14.00;;;;;;;18.19;66.96;100311.05;2059814;86;30052;-68
2022/07/23 02:14:19;;;;;;;16.60;13.85;;;;;;;18.17;67.14;100310.30;2042106;86;31484;-67
2022/07/23 02:17:20;;;;;;;18.15;14.43;;;;;;;18.14;67.04;100321.39;2066566;84;33397;-69
2022/07/23 02:20:22;;;;;;;16.45;13.53;;;;;;;18.12;67.20;100314.72;2027695;87;29992;-70
2022/07/23 02:23:23;;;;;;;17.23;14.70;;;;;;;18.10;67.35;100311.30;2082175;85;28131;-66
2022/07/23 02:26:24;;;;;;;17.27;14.05;;;;;;;18.10;67.41;100309.06;2045827;87;30079;-71
2022/07/23 02:29:26;;;;;;;19.30;13.88;;;;;;;18.09;67.63;100301.44;2046116;86;30901;-66
2022/07/23 02:32:27;;;;;;;20.10;14.95;;;;;;;18.06;67.55;100306.59;2046091;86;32969;-66
2022/07/23 02:35:28;;;;;;;17.60;13.93;;;;;;;18.06;67.67;100309.31;2082123;85;29993;-69
2022/07/23 02:38:29;;;;;;;16.90;14.30;;;;;;;18.06;67.63;100304.39;2081845;85;27685;-65
2022/07/23 02:41:31;;;;;;;17.32;13.70;;;;;;;18.05;67.90;100301.31;2082116;85;29049;-68
2022/07/23 02:44:32;;;;;;;16.93;13.58;;;;;;;18.04;67.85;100295.52;2082059;85;31514;-66
2022/07/23 02:47:33;;;;;;;15.13;13.30;;;;;;;18.03;67.95;100297.39;2082074;85;32971;-68
2022/07/23 02:50:34;;;;;;;15.83;13.75;;;;;;;18.02;67.96;100294.78;2081886;85;30211;-66
2022/07/23 02:53:36;;;;;;;14.28;12.80;;;;;;;18.05;68.02;100294.53;2081729;85;27634;-68
2022/07/23 02:56:37;;;;;;;15.13;13.08;;;;;;;18.06;68.05;100278.64;2045906;87;28104;-65
2022/07/23 02:59:38;;;;;;;18.12;14.47;;;;;;;18.07;68.02;100275.80;2082196;85;31381;-70
2022/07/23 03:02:39;;;;;;;14.45;12.73;;;;;;;18.11;68.24;100272.84;2046033;87;33150;-69
2022/07/23 03:05:41;;;;;;;15.45;13.58;;;;;;;18.14;68.17;100282.08;2075807;85;29758;-66
2022/07/23 03:08:43;;;;;;;16.32;13.05;;;;;;;18.14;68.25;100286.99;2067078;85;27600;-67
2022/07/23 03:11:44;;;;;;;19.73;14.13;;;;;;;18.16;68.34;100291.80;2045875;87;29100;-69
2022/07/23 03:14:45;;;;;;;19.48;13.93;;;;;;;18.19;68.33;100286.64;2045952;86;31404;-71
2022/07/23 03:17:48;;;;;;;14.03;12.63;;;;;;;18.22;68.45;100280.94;2080003;85;33376;-69
2022/07/23 03:20:49;;;;;;;14.90;12.85;;;;;;;18.25;68.45;100286.62;2080161;85;29090;-71
2022/07/23 03:23:53;;;;;;;17.12;12.98;;;;;;;18.28;68.47;100281.80;2080028;85;27716;-69
2022/07/23 03:26:55;;;;;;;14.00;12.60;;;;;;;18.32;68.50;100279.21;2079859;85;28635;-69
2022/07/23 03:29:59;;;;;;;19.73;13.25;;;;;;;18.38;68.58;100282.75;2067238;85;31494;-70
2022/07/23 03:33:00;;;;;;;14.87;13.40;;;;;;;18.48;68.59;100291.50;2098416;84;33642;-67
2022/07/23 03:36:01;;;;;;;15.80;13.13;;;;;;;18.57;68.50;100295.30;2102647;84;29982;-65
2022/07/23 03:39:03;;;;;;;15.43;13.43;;;;;;;18.67;68.53;100296.23;2102949;84;27721;-69
2022/07/23 03:42:05;;;;;;;14.35;12.88;;;;;;;18.78;68.58;100292.62;2102562;84;28587;-69
2022/07/23 03:45:07;;;;;;;14.93;13.43;;;;;;;18.90;68.71;100305.66;2102518;84;31028;-66
2022/07/23 03:48:08;;;;;;;13.95;12.58;;;;;;;19.02;68.53;100297.84;2102408;84;33399;-70
2022/07/23 03:51:09;;;;;;;13.83;11.90;;;;;;;19.16;68.57;100302.10;2102482;83;29150;-70
2022/07/23 03:54:11;;;;;;;16.77;13.05;;;;;;;19.31;68.55;100301.26;2110115;83;27756;-69
2022/07/23 03:57:12;;;;;;;15.55;13.13;;;;;;;19.47;68.43;100304.87;2109789;83;28189;-70
2022/07/23 04:00:14;;;;;;;13.93;12.50;;;;;;;19.63;68.46;100298.94;2109887;84;31811;-70
2022/07/23 04:03:15;;;;;;;14.87;13.30;;;;;;;19.79;68.24;100299.81;2109645;83;33056;-69
2022/07/23 04:06:17;;;;;;;17.62;12.30;;;;;;;19.95;68.16;100309.35;2110004;84;29649;-71
2022/07/23 04:09:18;;;;;;;15.83;11.38;;;;;;;20.11;68.13;100314.27;2101311;84;28218;-71
2022/07/23 04:12:20;;;;;;;14.70;12.45;;;;;;;20.26;67.96;100312.91;2095325;85;28812;-71
2022/07/23 04:15:21;;;;;;;13.72;12.30;;;;;;;20.43;67.75;100306.43;2094907;84;30737;-72
2022/07/23 04:18:23;;;;;;;15.40;12.70;;;;;;;20.63;67.47;100293.70;2094846;85;33787;-70
2022/07/23 04:21:24;;;;;;;15.25;12.85;;;;;;;20.82;67.16;100288.78;2094348;85;29783;-69
2022/07/23 04:24:26;;;;;;;14.07;11.50;;;;;;;21.01;66.84;100282.98;2094912;84;27749;-70
2022/07/23 04:27:27;;;;;;;14.68;11.63;;;;;;;21.19;66.35;100279.00;2095168;85;28670;-72
2022/07/23 04:30:28;;;;;;;16.42;12.30;;;;;;;21.38;66.28;100278.13;2094958;84;31055;-70
2022/07/23 04:33:29;;;;;;;13.55;12.18;;;;;;;21.58;65.97;100269.89;2058760;86;32987;-69
2022/07/23 04:36:30;;;;;;;15.95;12.98;;;;;;;21.77;65.53;100256.19;2058906;86;29659;-70
2022/07/23 04:39:32;;;;;;;15.45;12.23;;;;;;;21.93;65.18;100253.31;2095682;84;27717;-70
2022/07/23 04:42:33;;;;;;;17.37;12.70;;;;;;;22.06;64.23;100247.02;2059050;86;28564;-71
2022/07/23 04:45:34;;;;;;;14.07;12.63;;;;;;;22.26;63.93;100248.23;2058907;86;31048;-70
2022/07/23 04:48:35;;;;;;;15.90;12.10;;;;;;;22.58;63.19;100246.39;2095266;84;32942;-69
2022/07/23 04:51:36;;;;;;;17.48;12.68;;;;;;;23.12;63.14;100246.85;2045027;87;29439;-70
2022/07/23 04:54:38;;;;;;;13.95;11.80;;;;;;;23.71;62.75;100247.56;2027494;87;28330;-70
2022/07/23 04:57:39;;;;;;;14.18;11.33;;;;;;;24.49;62.20;100242.89;2027657;87;29880;-70
2022/07/23 05:00:40;;;;;;;12.75;11.45;;;;;;;25.42;61.57;100222.18;2027724;86;31016;-69
2022/07/23 05:03:41;;;;;;;15.13;11.38;;;;;;;26.32;60.05;100214.08;2027683;86;32984;-71
2022/07/23 05:06:42;;;;;;;15.65;11.20;;;;;;;27.01;57.90;100215.09;2027747;87;29623;-69
2022/07/23 05:09:43;;;;;;;11.57;9.55;;;;;;;27.39;56.45;100206.80;2027678;87;27700;-69
2022/07/23 05:12:45;;;;;;;10.95;9.80;;;;;;;27.59;54.44;100204.89;2027609;87;28654;-70
2022/07/23 05:15:46;;;;;;;9.90;8.90;;;;;;;27.64;54.27;100200.19;2027612;86;31027;-66
2022/07/23 05:18:47;;;;;;;10.88;9.78;;;;;;;27.44;52.92;100196.59;2027171;86;33783;-69
2022/07/23 05:21:49;;;;;;;15.28;10.23;;;;;;;27.24;52.12;100190.81;2026891;87;29700;-67
2022/07/23 05:24:50;;;;;;;11.15;10.05;;;;;;;27.02;52.99;100190.69;2081907;84;27698;-67
2022/07/23 05:27:51;;;;;;;11.93;9.75;;;;;;;26.93;51.90;100187.16;2045942;87;28608;-67
2022/07/23 05:30:52;;;;;;;13.18;9.28;;;;;;;26.70;51.71;100181.67;2027076;87;31016;-69
2022/07/23 05:33:54;;;;;;;15.28;10.35;;;;;;;26.56;52.11;100168.74;2082033;85;32942;-68
2022/07/23 05:36:55;;;;;;;12.25;9.45;;;;;;;26.43;51.83;100172.97;2046139;87;29639;-67
2022/07/23 05:40:03;;;;;;;13.40;10.23;;;;;;;26.41;52.14;100171.42;2027344;87;28339;-70
2022/07/23 05:43:04;;;;;;;10.43;9.43;;;;;;;26.42;51.56;100171.77;2082052;85;28700;-70
2022/07/23 05:46:05;;;;;;;12.88;9.75;;;;;;;26.42;51.64;100166.27;2082094;85;31100;-71
2022/07/23 05:49:07;;;;;;;11.65;9.58;;;;;;;26.44;51.03;100169.19;2082122;85;32938;-71
2022/07/23 05:52:09;;;;;;;11.55;9.88;;;;;;;26.41;51.12;100160.44;2082256;85;30238;-70
2022/07/23 05:55:12;;;;;;;10.58;9.45;;;;;;;26.35;50.54;100162.03;2085210;85;27608;-71
2022/07/23 05:58:13;;;;;;;10.08;8.75;;;;;;;26.29;50.69;100160.03;2085303;84;28658;-70
2022/07/23 06:01:18;;;;;;;9.83;8.70;;;;;;;26.23;50.61;100158.85;2049459;86;31026;-71
2022/07/23 06:04:19;;;;;;;13.53;9.75;;;;;;;26.20;50.37;100155.96;2030798;87;32982;-70
2022/07/23 06:07:20;;;;;;;9.55;8.63;;;;;;;26.20;50.78;100158.70;2085344;85;30439;-70
2022/07/23 06:10:22;;;;;;;9.98;9.08;;;;;;;26.34;50.86;100162.56;2085407;84;27717;-72
2022/07/23 06:13:23;;;;;;;11.00;9.20;;;;;;;26.60;51.02;100165.44;2085372;85;28645;-72
2022/07/23 06:16:24;;;;;;;10.15;8.40;;;;;;;26.84;50.26;100167.67;2030575;87;31809;-70
2022/07/23 06:19:26;;;;;;;10.48;9.45;;;;;;;26.99;49.74;100167.68;2085103;85;33088;-72
2022/07/23 06:22:27;;;;;;;11.22;9.48;;;;;;;27.23;50.12;100173.98;2085519;84;30432;-72
2022/07/23 06:25:29;;;;;;;11.05;8.73;;;;;;;27.54;49.84;100175.20;2030745;86;27734;-71
2022/07/23 06:28:32;;;;;;;12.07;9.35;;;;;;;28.02;49.19;100182.14;2085539;85;28617;-71
2022/07/23 06:31:34;;;;;;;9.95;9.03;;;;;;;28.31;48.90;100181.20;2085669;85;31018;-71
2022/07/23 06:34:35;;;;;;;12.60;8.85;;;;;;;28.58;48.76;100181.98;2085170;85;33844;-71
2022/07/23 06:37:36;;;;;;;10.30;9.28;;;;;;;28.63;47.77;100175.36;2030604;87;29631;-69
2022/07/23 06:40:38;;;;;;;11.43;9.40;;;;;;;28.71;47.37;100178.50;2084856;85;27738;-71
2022/07/23 06:43:39;;;;;;;13.10;9.75;;;;;;;29.01;47.61;100163.17;2085438;84;28623;-69
2022/07/23 06:46:40;;;;;;;10.15;9.15;;;;;;;29.59;47.58;100160.70;2085300;85;32299;-75
2022/07/23 06:49:41;;;;;;;11.08;9.90;;;;;;;30.04;46.89;100155.58;2049291;86;33038;-66
2022/07/23 06:52:43;;;;;;;11.75;8.88;;;;;;;30.60;46.54;100153.03;2032861;86;29734;-70
2022/07/23 06:55:44;;;;;;;12.18;9.50;;;;;;;30.98;45.77;100143.77;2075638;85;27678;-72
2022/07/23 06:58:45;;;;;;;10.98;9.45;;;;;;;31.37;44.16;100145.61;2053872;85;29881;-70
2022/07/23 07:01:46;;;;;;;10.63;9.63;;;;;;;31.37;43.55;100139.21;2095168;84;31005;-74
2022/07/23 07:04:47;;;;;;;10.43;9.38;;;;;;;31.51;43.33;100138.64;2095213;85;32976;-71
2022/07/23 07:07:48;;;;;;;11.25;9.85;;;;;;;31.71;43.08;100139.13;2095314;84;29630;-72
2022/07/23 07:10:49;;;;;;;9.55;8.60;;;;;;;31.99;42.51;100144.32;2043002;86;27685;-75
2022/07/23 07:13:51;;;;;;;10.30;9.23;;;;;;;32.42;42.31;100142.24;2094846;85;28802;-72
2022/07/23 07:16:53;;;;;;;11.70;9.55;;;;;;;32.47;40.26;100140.72;2095012;84;31847;-75
2022/07/23 07:19:56;;;;;;;12.10;9.60;;;;;;;32.34;40.60;100134.73;2094961;84;32912;-73
2022/07/23 07:22:57;;;;;;;9.80;8.90;;;;;;;32.33;40.16;100129.73;2095026;84;30730;-73
2022/07/23 07:25:59;;;;;;;12.15;8.93;;;;;;;32.09;40.28;100131.37;2058580;86;27934;-71
2022/07/23 07:29:02;;;;;;;9.83;8.73;;;;;;;32.08;39.48;100135.21;2042550;87;28126;-73
2022/07/23 07:32:05;;;;;;;10.70;9.00;;;;;;;31.76;39.71;100127.70;2094628;85;31012;-70
2022/07/23 07:35:07;;;;;;;9.80;8.68;;;;;;;31.41;39.70;100129.41;2058720;86;33713;-72
2022/07/23 07:38:09;;;;;;;9.85;8.98;;;;;;;31.14;40.38;100131.40;2042400;86;29677;-70
2022/07/23 07:41:10;;;;;;;10.68;9.68;;;;;;;31.11;40.16;100120.77;2075332;85;27734;-72
2022/07/23 07:44:11;;;;;;;10.90;9.30;;;;;;;30.97;40.12;100119.38;2094993;84;28801;-70
2022/07/23 07:47:15;;;;;;;9.80;8.80;;;;;;;30.97;40.53;100115.23;2095172;85;31040;-70
2022/07/23 07:50:16;;;;;;;12.20;9.10;;;;;;;31.05;40.20;100115.53;2095523;84;32984;-67
2022/07/23 07:53:17;;;;;;;11.33;9.45;;;;;;;31.16;40.51;100111.28;2038779;86;30408;-68
2022/07/23 07:56:19;;;;;;;10.15;9.15;;;;;;;31.11;40.34;100110.52;2081944;85;27917;-69
2022/07/23 07:59:20;;;;;;;10.55;9.55;;;;;;;31.24;40.44;100112.45;2082137;85;28664;-70
2022/07/23 08:02:21;;;;;;;10.78;9.20;;;;;;;31.47;40.68;100104.14;2046079;86;31032;-69
2022/07/23 08:05:25;;;;;;;12.70;10.10;;;;;;;31.71;39.76;100105.34;2027048;87;33769;-71
2022/07/23 08:08:26;;;;;;;10.03;9.03;;;;;;;31.81;39.52;100105.73;2027179;87;29649;-68
2022/07/23 08:11:27;;;;;;;12.95;10.30;;;;;;;32.02;40.05;100103.67;2027366;87;27623;-67
2022/07/23 08:14:29;;;;;;;10.40;9.40;;;;;;;32.25;39.40;100104.50;2026868;87;28824;-73
2022/07/23 08:17:30;;;;;;;11.43;9.53;;;;;;;32.47;39.37;100100.52;2027330;87;31012;-72
2022/07/23 08:20:32;;;;;;;14.75;8.95;;;;;;;32.61;38.64;100099.84;2011735;87;48638;-75
2022/07/23 08:23:34;;;;;;;10.95;9.53;;;;;;;32.67;38.40;100101.72;2065967;86;29113;-72
2022/07/23 08:26:35;;;;;;;9.93;9.03;;;;;;;32.84;38.96;100097.86;2081790;84;27704;-72
2022/07/23 08:29:37;;;;;;;9.65;8.65;;;;;;;33.01;38.68;100108.65;2082168;85;28641;-73
2022/07/23 08:33:00;;;;;;;11.28;9.03;;;;;;;32.99;38.22;100102.51;2027228;87;31083;-73
2022/07/23 08:36:04;;;;;;;11.30;9.18;;;;;;;33.06;38.31;100107.98;2082124;85;32942;-71
2022/07/23 08:39:05;;;;;;;9.75;8.75;;;;;;;33.29;38.07;100104.52;2082123;85;30531;-71
2022/07/23 08:42:07;;;;;;;12.55;11.25;;;;;;;33.37;37.26;100108.94;2046265;87;27693;-72
2022/07/23 08:45:10;;;;;;;13.58;10.25;;;;;;;33.31;37.28;100107.05;2027310;87;29385;-72
2022/07/23 08:48:18;;;;;;;10.48;9.53;;;;;;;33.46;37.52;100111.70;2027308;87;31853;-67
2022/07/23 08:51:19;;;;;;;10.45;8.70;;;;;;;33.59;37.46;100102.91;2027259;87;32949;-68
2022/07/23 08:54:22;;;;;;;12.03;9.13;;;;;;;33.71;37.29;100092.69;2034660;87;29624;-71
2022/07/23 08:57:23;;;;;;;10.40;9.40;;;;;;;33.97;37.19;100086.46;2043013;86;27671;-71
2022/07/23 09:00:24;;;;;;;17.87;10.48;;;;;;;34.05;36.65;100083.36;2075691;85;28627;-72
2022/07/23 09:03:29;;;;;;;14.65;9.90;;;;;;;34.17;36.40;100088.09;2095218;85;31823;-70
2022/07/23 09:06:30;;;;;;;10.68;9.20;;;;;;;34.11;36.75;100097.38;2058503;86;33074;-69
2022/07/23 09:09:33;;;;;;;14.25;9.33;;;;;;;34.22;36.51;100091.02;2042949;86;29605;-70
2022/07/23 09:12:36;;;;;;;14.38;10.03;;;;;;;34.33;36.49;100093.52;2043007;86;27678;-70
2022/07/23 09:15:49;;;;;;;15.28;10.95;;;;;;;34.33;35.75;100086.00;2043238;86;29467;-68
2022/07/23 09:18:55;;;;;;;14.18;10.78;;;;;;;34.32;35.63;100085.70;2042127;86;31687;-67
2022/07/23 09:21:58;;;;;;;11.10;10.00;;;;;;;34.35;35.27;100084.36;2074737;85;32977;-71
2022/07/23 09:25:16;;;;;;;13.13;10.00;;;;;;;34.53;35.66;100083.47;2036224;86;29694;-70
2022/07/23 09:28:17;;;;;;;12.33;9.48;;;;;;;34.76;35.30;100082.62;2067791;85;27630;-71
2022/07/23 09:31:18;;;;;;;11.00;9.73;;;;;;;34.82;34.90;100076.62;2075749;85;28621;-70
2022/07/23 09:34:35;;;;;;;12.95;10.23;;;;;;;34.76;34.55;100081.75;2051326;85;31101;-69
2022/07/23 09:37:35;;;;;;;12.18;10.13;;;;;;;34.63;34.79;100078.13;2094975;84;33136;-72
2022/07/23 09:40:36;;;;;;;10.82;9.80;;;;;;;34.54;34.77;100080.43;2058741;86;29675;-70
2022/07/23 09:43:37;;;;;;;19.37;10.68;;;;;;;34.53;34.89;100080.13;2095297;84;28480;-70
2022/07/23 09:46:40;;;;;;;17.57;10.50;;;;;;;34.43;34.93;100091.53;2058915;86;28633;-70
2022/07/23 09:50:09;;;;;;;11.90;10.70;;;;;;;34.33;34.83;100099.08;2046085;86;32207;-71
2022/07/23 09:53:29;;;;;;;13.00;10.20;;;;;;;34.13;34.93;100103.55;2025822;87;33754;-70
2022/07/23 09:56:29;;;;;;;11.60;10.40;;;;;;;33.83;35.39;100102.47;2071720;85;29739;-71
2022/07/23 09:59:35;;;;;;;12.60;10.35;;;;;;;33.57;35.43;100104.52;2095253;85;27723;-70
2022/07/23 10:02:37;;;;;;;12.33;9.95;;;;;;;33.39;35.69;100108.70;2095121;84;28788;-69
2022/07/23 10:05:40;;;;;;;11.40;9.43;;;;;;;33.17;35.61;100122.48;2095190;84;32010;-71
2022/07/23 10:08:42;;;;;;;12.13;10.68;;;;;;;32.98;36.02;100153.54;2042749;87;32768;-70
2022/07/23 10:11:43;;;;;;;11.55;10.23;;;;;;;32.76;36.20;100166.95;2075340;85;29647;-70
2022/07/23 10:14:45;;;;;;;13.05;9.60;;;;;;;32.45;36.35;100151.19;2095248;84;27689;-70
2022/07/23 10:17:48;;;;;;;12.85;10.05;;;;;;;32.16;36.58;100137.70;2075213;85;28633;-70
2022/07/23 10:20:50;;;;;;;10.50;9.20;;;;;;;31.92;36.52;100137.95;2058933;86;31021;-71
2022/07/23 10:24:23;;;;;;;12.25;9.20;;;;;;;31.59;37.06;100138.41;2095149;84;32959;-68
2022/07/23 10:28:01;;;;;;;12.15;10.88;;;;;;;31.16;37.43;100132.04;2043022;86;30006;-70
2022/07/23 10:31:17;;;;;;;10.50;9.45;;;;;;;30.68;38.30;100138.14;2075043;85;27678;-69
2022/07/23 10:34:33;;;;;;;15.20;10.30;;;;;;;30.21;38.92;100151.88;2072003;85;28702;-70
2022/07/23 10:37:47;;;;;;;11.97;10.60;;;;;;;29.83;39.75;100167.05;2094252;84;27720;-69
2022/07/23 10:41:02;;;;;;;11.65;9.58;;;;;;;29.42;41.90;100170.70;2058453;86;33284;-71
2022/07/23 10:44:13;;;;;;;11.33;9.68;;;;;;;28.93;43.42;100154.53;2042365;86;29646;-70
2022/07/23 10:47:42;;;;;;;10.85;9.75;;;;;;;28.50;44.47;100149.91;2094601;84;27774;-69
2022/07/23 10:51:08;;;;;;;17.10;11.03;;;;;;;28.12;45.90;100141.92;2095147;85;28738;-75
2022/07/23 10:54:22;;;;;;;12.50;10.38;;;;;;;27.69;46.84;100139.92;2042486;85;31201;-74
2022/07/23 10:57:29;;;;;;;13.98;11.97;;;;;;;27.31;48.07;100166.98;2060078;86;34187;-68
2022/07/23 11:00:34;;;;;;;14.75;11.35;;;;;;;27.04;49.35;100177.61;2059680;86;28229;-74
2022/07/23 11:03:38;;;;;;;12.88;10.48;;;;;;;26.77;49.85;100212.02;2060232;85;27735;-70
2022/07/23 11:06:56;;;;;;;11.88;10.70;;;;;;;26.44;50.59;100209.52;1980145;89;27883;-76
2022/07/23 11:09:59;;;;;;;;;;;;;;;26.11;51.19;100206.48;1956090;91;27805;-65
2022/07/23 11:13:26;;;;;;;17.92;11.35;;;;;;;25.82;52.58;100214.81;1984282;88;28778;-64
2022/07/23 11:16:28;;;;;;;14.33;11.33;;;;;;;25.63;53.07;100202.39;2014996;87;30446;-69
2022/07/23 11:19:29;;;;;;;13.20;10.53;;;;;;;25.46;53.49;100208.46;2014812;88;27801;-65
2022/07/23 11:22:46;;;;;;;15.18;10.85;;;;;;;25.31;54.57;100213.27;2014870;88;29077;-68
2022/07/23 11:25:49;;;;;;;13.25;11.85;;;;;;;25.23;55.42;100205.05;2013443;88;27750;-64
2022/07/23 11:28:52;;;;;;;13.03;11.10;;;;;;;25.12;55.54;100188.45;2014447;88;27920;-64
2022/07/23 11:32:05;;;;;;;16.57;12.23;;;;;;;25.05;56.72;100185.20;2014088;88;27794;-66
2022/07/23 11:35:27;;;;;;;15.85;12.00;;;;;;;24.93;56.94;100169.13;2014006;88;27761;-66
2022/07/23 11:38:31;;;;;;;12.58;11.28;;;;;;;24.65;56.88;100163.13;2014877;88;29510;-63
2022/07/23 11:41:43;;;;;;;13.08;11.75;;;;;;;24.61;57.93;100157.64;2014655;87;31124;-64
2022/07/23 11:44:47;;;;;;;12.20;11.03;;;;;;;24.61;58.27;100135.73;2014791;88;33503;-65
2022/07/23 11:47:48;;;;;;;14.13;12.40;;;;;;;24.54;58.16;100112.28;2014806;88;29662;-65
2022/07/23 11:50:51;;;;;;;15.43;12.05;;;;;;;24.38;58.77;100111.80;2015217;88;27751;-65
2022/07/23 11:53:53;;;;;;;14.63;12.10;;;;;;;24.36;59.24;100117.42;2014852;88;28675;-66
2022/07/23 11:56:59;;;;;;;13.18;11.78;;;;;;;24.39;59.75;100114.87;2014940;88;31093;-64
2022/07/23 12:00:14;;;;;;;16.20;13.38;;;;;;;24.37;60.18;100120.50;2014930;88;33821;-68
2022/07/23 12:03:16;;;;;;;15.35;13.68;;;;;;;24.39;60.80;100111.61;2053376;83;31024;-66
2022/07/23 12:06:20;;;;;;;15.30;13.65;;;;;;;24.48;61.62;100125.31;2068018;84;27788;-65
2022/07/23 12:09:22;;;;;;;15.63;14.07;;;;;;;24.61;62.22;100127.51;2084830;84;28696;-66
2022/07/23 12:12:30;;;;;;;15.95;13.90;;;;;;;24.78;62.54;100137.98;2047289;85;27790;-65
2022/07/23 12:15:38;;;;;;;16.55;14.13;;;;;;;24.90;62.53;100121.52;2063029;84;32966;-66
2022/07/23 12:18:45;;;;;;;14.75;13.32;;;;;;;25.03;62.70;100105.37;2009802;87;27821;-68
2022/07/23 12:21:48;;;;;;;18.00;12.77;;;;;;;25.17;62.52;100101.56;2080771;84;27894;-65
2022/07/23 12:25:00;;;;;;;14.05;12.60;;;;;;;25.31;62.04;100110.94;2041697;87;28617;-65
2022/07/23 12:28:14;;;;;;;17.90;14.18;;;;;;;25.52;62.71;100113.63;2085769;84;31137;-65
2022/07/23 12:31:16;;;;;;;12.82;11.70;;;;;;;25.82;62.12;100104.20;2085772;84;32952;-65
2022/07/23 12:34:18;;;;;;;13.90;11.88;;;;;;;26.18;62.26;100112.72;2024543;86;30786;-65
2022/07/23 12:37:30;;;;;;;14.07;12.58;;;;;;;26.52;62.03;100116.91;2089813;84;27723;-68
2022/07/23 12:40:36;;;;;;;14.18;12.37;;;;;;;26.83;61.93;100119.23;2026945;87;29870;-63
2022/07/23 12:43:41;;;;;;;17.23;11.28;;;;;;;27.16;61.15;100124.38;2081233;85;31074;-63
2022/07/23 12:46:42;;;;;;;11.88;10.72;;;;;;;27.31;59.74;100120.23;2046027;87;33017;-64
2022/07/23 12:49:43;;;;;;;10.23;9.23;;;;;;;27.36;58.67;100113.64;2046440;87;29625;-62
2022/07/23 12:52:44;;;;;;;11.15;9.70;;;;;;;27.39;58.82;100115.14;2027345;87;27735;-62
2022/07/23 12:55:47;;;;;;;11.78;10.58;;;;;;;27.50;58.21;100116.59;2083658;84;29508;-62
2022/07/23 12:59:01;;;;;;;12.20;10.88;;;;;;;27.62;58.77;100117.83;2049142;86;32302;-63
2022/07/23 13:02:02;;;;;;;11.73;10.55;;;;;;;27.65;57.92;100110.53;2036593;87;33214;-65
2022/07/23 13:05:04;;;;;;;10.43;9.53;;;;;;;27.55;57.76;100112.75;2036964;86;29635;-64
2022/07/23 13:08:05;;;;;;;15.63;11.38;;;;;;;27.53;57.91;100118.97;2036742;86;27811;-67
2022/07/23 13:11:07;;;;;;;14.58;11.55;;;;;;;27.59;57.99;100123.17;2036453;87;28682;-66
2022/07/23 13:14:08;;;;;;;13.65;10.28;;;;;;;27.63;57.76;100129.67;2036401;87;31038;-63
2022/07/23 13:17:09;;;;;;;11.43;10.32;;;;;;;27.63;57.58;100129.17;2036906;87;33345;-64
2022/07/23 13:20:11;;;;;;;13.25;10.48;;;;;;;27.56;57.50;100126.84;2085321;84;29618;-62
2022/07/23 13:23:13;;;;;;;12.00;10.75;;;;;;;27.55;57.54;100136.98;2085088;85;27701;-62
2022/07/23 13:26:15;;;;;;;17.23;11.08;;;;;;;27.50;57.10;100138.09;2085241;85;29483;-61
2022/07/23 13:29:16;;;;;;;16.48;10.58;;;;;;;27.48;56.87;100135.19;2037949;86;31027;-62
2022/07/23 13:32:18;;;;;;;12.25;10.28;;;;;;;27.49;56.95;100128.64;2087112;83;33894;-63
2022/07/23 13:35:19;;;;;;;11.97;10.90;;;;;;;27.52;57.00;100125.00;2035964;87;30840;-62
2022/07/23 13:38:22;;;;;;;11.43;10.43;;;;;;;27.52;56.92;100119.50;2084891;85;27704;-63
2022/07/23 13:41:23;;;;;;;12.28;11.05;;;;;;;27.50;56.92;100120.21;2085187;85;28867;-63
2022/07/23 13:44:25;;;;;;;12.70;11.40;;;;;;;27.53;56.92;100119.83;2085130;85;31908;-63
2022/07/23 13:47:26;;;;;;;16.37;11.00;;;;;;;27.55;57.02;100110.00;2085251;84;33654;-63
2022/07/23 13:50:28;;;;;;;13.30;11.45;;;;;;;27.59;56.98;100105.28;2049220;86;29640;-63
2022/07/23 13:53:29;;;;;;;12.40;10.78;;;;;;;27.63;57.08;100105.77;2049410;85;27752;-64
2022/07/23 13:56:31;;;;;;;16.23;12.60;;;;;;;27.70;57.02;100114.95;2047049;86;28632;-63